createdAt,value
2018-12-15T00:01:53.299Z,50.20
2018-12-15T00:04:20.225Z,50.20
2018-12-15T00:06:47.150Z,49.70
2018-12-15T00:09:14.154Z,50.10
2018-12-15T00:11:41.067Z,50.20
2018-12-15T00:14:07.997Z,50.10
2018-12-15T00:16:34.955Z,49.90
2018-12-15T00:19:01.877Z,50.00
2018-12-15T00:21:28.914Z,49.90
2018-12-15T00:23:55.837Z,49.90
2018-12-15T00:26:22.769Z,49.90
2018-12-15T00:28:49.693Z,49.80
2018-12-15T00:31:16.724Z,49.60
2018-12-15T00:33:43.646Z,49.40
2018-12-15T00:36:10.577Z,49.40
2018-12-15T00:38:37.546Z,49.50
2018-12-15T00:41:04.468Z,49.60
2018-12-15T00:43:31.384Z,49.90
2018-12-15T00:45:58.377Z,50.00
2018-12-15T00:48:25.299Z,49.80
2018-12-15T00:50:52.221Z,49.70
2018-12-15T00:53:19.226Z,49.90
2018-12-15T00:55:46.148Z,49.90
2018-12-15T00:58:14.350Z,49.80
2018-12-15T01:00:41.405Z,49.90
2018-12-15T01:03:08.334Z,49.90
2018-12-15T01:05:35.254Z,49.90
2018-12-15T01:08:02.237Z,49.90
2018-12-15T01:10:29.155Z,50.00
2018-12-15T01:12:56.080Z,50.60
2018-12-15T01:15:28.918Z,50.00
2018-12-15T01:17:55.848Z,50.10
2018-12-15T01:20:22.847Z,50.00
2018-12-15T01:22:49.771Z,50.10
2018-12-15T01:25:16.687Z,50.10
2018-12-15T01:27:43.696Z,50.10
2018-12-15T01:30:10.627Z,50.10
2018-12-15T01:32:37.666Z,50.00
2018-12-15T01:35:04.579Z,50.10
2018-12-15T01:37:31.505Z,50.10
2018-12-15T01:39:58.428Z,50.10
2018-12-15T01:42:25.421Z,50.10
2018-12-15T01:44:52.337Z,50.10
2018-12-15T01:47:19.255Z,50.10
2018-12-15T01:49:46.262Z,50.10
2018-12-15T01:52:13.178Z,50.20
2018-12-15T01:54:40.099Z,50.20
2018-12-15T01:57:07.071Z,50.20
2018-12-15T01:59:33.996Z,50.20
2018-12-15T02:02:00.921Z,50.20
2018-12-15T02:04:27.899Z,50.20
2018-12-15T02:06:54.815Z,50.20
2018-12-15T02:09:21.741Z,50.20
2018-12-15T02:11:48.740Z,50.10
2018-12-15T02:14:15.755Z,50.10
2018-12-15T02:16:55.069Z,50.10
2018-12-15T02:19:22.128Z,50.10
2018-12-15T02:21:49.122Z,50.20
2018-12-15T02:24:16.028Z,50.20
2018-12-15T02:26:42.975Z,50.10
2018-12-15T02:29:11.874Z,50.20
2018-12-15T02:31:38.820Z,50.20
2018-12-15T02:34:05.857Z,50.20
2018-12-15T02:36:32.808Z,50.20
2018-12-15T02:38:59.761Z,50.20
2018-12-15T02:41:26.687Z,50.10
2018-12-15T02:43:53.644Z,50.20
2018-12-15T02:46:20.701Z,50.20
2018-12-15T02:48:47.744Z,50.20
2018-12-15T02:51:14.681Z,50.10
2018-12-15T02:53:41.728Z,50.00
2018-12-15T02:56:08.651Z,50.70
2018-12-15T02:58:35.573Z,50.00
2018-12-15T03:01:02.669Z,50.10
2018-12-15T03:03:29.655Z,50.10
2018-12-15T03:05:56.668Z,50.00
2018-12-15T03:08:23.719Z,50.10
2018-12-15T03:10:50.656Z,50.10
2018-12-15T03:13:17.609Z,50.10
2018-12-15T03:15:44.554Z,50.10
2018-12-15T03:18:11.478Z,50.00
2018-12-15T03:20:38.444Z,50.10
2018-12-15T03:23:05.389Z,50.10
2018-12-15T03:25:32.317Z,50.10
2018-12-15T03:27:59.277Z,50.00
2018-12-15T03:30:26.210Z,50.00
2018-12-15T03:32:53.133Z,50.10
2018-12-15T03:35:20.121Z,50.10
2018-12-15T03:37:47.121Z,50.10
2018-12-15T03:40:14.118Z,50.10
2018-12-15T03:42:41.059Z,50.10
2018-12-15T03:45:08.024Z,50.70
2018-12-15T03:47:35.044Z,50.10
2018-12-15T03:50:02.015Z,50.10
2018-12-15T03:52:29.052Z,50.20
2018-12-15T03:54:55.984Z,50.10
2018-12-15T03:57:22.936Z,50.10
2018-12-15T03:59:49.908Z,50.00
2018-12-15T04:02:16.924Z,50.00
2018-12-15T04:04:44.085Z,50.00
2018-12-15T04:07:11.008Z,50.00
2018-12-15T04:09:38.009Z,50.00
2018-12-15T04:12:04.949Z,50.00
2018-12-15T04:14:31.976Z,50.00
2018-12-15T04:16:58.985Z,50.00
2018-12-15T04:19:25.942Z,49.90
2018-12-15T04:21:54.861Z,50.00
2018-12-15T04:24:21.799Z,50.00
2018-12-15T04:26:48.752Z,49.90
2018-12-15T04:29:15.690Z,49.90
2018-12-15T04:31:42.671Z,49.90
2018-12-15T04:34:09.601Z,49.90
2018-12-15T04:36:37.050Z,50.00
2018-12-15T04:39:04.496Z,50.50
2018-12-15T04:41:31.445Z,49.90
2018-12-15T04:43:58.594Z,49.90
2018-12-15T04:46:25.520Z,49.90
2018-12-15T04:48:52.481Z,49.90
2018-12-15T04:51:19.425Z,49.90
2018-12-15T04:53:46.389Z,49.90
2018-12-15T04:56:13.303Z,50.00
2018-12-15T04:58:40.233Z,50.00
2018-12-15T05:01:07.317Z,50.00
2018-12-15T05:03:34.280Z,50.00
2018-12-15T05:06:01.305Z,50.00
2018-12-15T05:08:28.225Z,50.40
2018-12-15T05:10:55.147Z,50.00
2018-12-15T05:13:22.155Z,50.00
2018-12-15T05:15:49.094Z,50.00
2018-12-15T05:18:18.317Z,50.00
2018-12-15T05:20:45.033Z,50.00
2018-12-15T05:23:11.949Z,50.00
2018-12-15T05:25:38.864Z,50.00
2018-12-15T05:28:05.783Z,50.00
2018-12-15T05:30:32.797Z,49.90
2018-12-15T05:32:59.757Z,49.90
2018-12-15T05:35:26.677Z,49.90
2018-12-15T05:37:53.757Z,49.90
2018-12-15T05:40:20.696Z,49.90
2018-12-15T05:42:47.624Z,49.90
2018-12-15T05:45:14.688Z,49.80
2018-12-15T05:47:41.640Z,49.80
2018-12-15T05:50:08.565Z,49.80
2018-12-15T05:52:35.572Z,49.80
2018-12-15T05:55:02.581Z,49.80
2018-12-15T05:57:29.500Z,50.40
2018-12-15T05:59:56.510Z,49.80
2018-12-15T06:02:23.752Z,49.80
2018-12-15T06:04:51.614Z,49.80
2018-12-15T06:07:18.532Z,49.90
2018-12-15T06:09:45.492Z,49.90
2018-12-15T06:12:12.424Z,49.70
2018-12-15T06:14:39.426Z,49.80
2018-12-15T06:17:06.358Z,49.80
2018-12-15T06:19:33.581Z,49.80
2018-12-15T06:22:00.860Z,49.80
2018-12-15T06:24:28.016Z,49.80
2018-12-15T06:26:55.023Z,49.80
2018-12-15T06:29:21.944Z,49.80
2018-12-15T06:31:48.865Z,49.70
2018-12-15T06:34:15.783Z,49.80
2018-12-15T06:36:42.787Z,49.70
2018-12-15T06:39:09.717Z,49.70
2018-12-15T06:41:36.707Z,49.70
2018-12-15T06:44:03.639Z,49.70
2018-12-15T06:46:30.567Z,49.80
2018-12-15T06:48:57.528Z,49.70
2018-12-15T06:51:24.482Z,49.70
2018-12-15T06:53:51.405Z,49.80
2018-12-15T06:56:20.282Z,49.90
2018-12-15T06:58:47.369Z,49.90
2018-12-15T07:01:14.308Z,50.50
2018-12-15T07:03:41.260Z,49.90
2018-12-15T07:06:08.187Z,49.90
2018-12-15T07:08:35.301Z,49.70
2018-12-15T07:11:02.301Z,50.20
2018-12-15T07:13:29.243Z,50.70
2018-12-15T07:15:56.222Z,50.20
2018-12-15T07:18:23.241Z,50.20
2018-12-15T07:20:50.184Z,50.40
2018-12-15T07:23:17.144Z,50.30
2018-12-15T07:25:44.200Z,50.40
2018-12-15T07:28:11.234Z,50.20
2018-12-15T07:30:38.157Z,50.20
2018-12-15T07:33:05.081Z,50.00
2018-12-15T07:35:31.997Z,50.10
2018-12-15T07:37:58.980Z,49.80
2018-12-15T07:40:26.096Z,49.80
2018-12-15T07:42:53.247Z,49.80
2018-12-15T07:45:20.204Z,49.70
2018-12-15T07:47:47.284Z,49.80
2018-12-15T07:50:14.289Z,49.80
2018-12-15T07:52:41.296Z,49.70
2018-12-15T07:55:08.986Z,49.70
2018-12-15T07:57:36.007Z,49.70
2018-12-15T08:00:03.899Z,49.90
2018-12-15T08:02:30.814Z,49.80
2018-12-15T08:04:57.736Z,49.90
2018-12-15T08:07:24.881Z,49.90
2018-12-15T08:09:52.414Z,49.80
2018-12-15T08:12:25.303Z,49.90
2018-12-15T08:14:52.313Z,49.90
2018-12-15T08:17:19.237Z,50.00
2018-12-15T08:19:46.153Z,50.20
2018-12-15T08:22:13.088Z,50.40
2018-12-15T08:24:40.098Z,51.00
2018-12-15T08:27:07.068Z,50.40
2018-12-15T08:29:34.020Z,50.40
2018-12-15T08:32:00.971Z,50.40
2018-12-15T08:34:27.899Z,50.30
2018-12-15T08:36:55.137Z,50.20
2018-12-15T08:39:22.386Z,50.20
2018-12-15T08:41:49.328Z,50.00
2018-12-15T08:44:16.419Z,50.20
2018-12-15T08:46:43.435Z,50.20
2018-12-15T08:49:10.352Z,50.30
2018-12-15T08:51:37.313Z,50.20
2018-12-15T08:54:04.258Z,49.90
2018-12-15T08:56:31.225Z,49.90
2018-12-15T08:58:58.201Z,49.90
2018-12-15T09:01:25.144Z,49.90
2018-12-15T09:03:52.153Z,49.90
2018-12-15T09:06:19.091Z,50.10
2018-12-15T09:08:46.144Z,50.20
2018-12-15T09:11:13.064Z,50.20
2018-12-15T09:13:40.003Z,50.10
2018-12-15T09:16:06.953Z,50.10
2018-12-15T09:18:33.875Z,49.90
2018-12-15T09:21:00.876Z,49.80
2018-12-15T09:23:27.850Z,50.00
2018-12-15T09:25:54.866Z,49.90
2018-12-15T09:28:21.782Z,49.80
2018-12-15T09:30:52.475Z,49.90
2018-12-15T09:33:19.389Z,49.90
2018-12-15T09:35:46.424Z,50.00
2018-12-15T09:38:13.348Z,50.00
2018-12-15T09:40:40.336Z,49.80
2018-12-15T09:43:07.264Z,49.80
2018-12-15T09:45:34.224Z,49.90
2018-12-15T09:48:01.272Z,50.00
2018-12-15T09:50:28.321Z,49.60
2018-12-15T09:52:55.293Z,49.40
2018-12-15T09:55:22.313Z,49.60
2018-12-15T09:57:49.254Z,49.90
2018-12-15T10:00:16.199Z,49.90
2018-12-15T10:02:43.158Z,49.70
2018-12-15T10:05:10.112Z,49.70
2018-12-15T10:07:37.078Z,49.60
2018-12-15T10:10:04.600Z,50.40
2018-12-15T10:12:31.560Z,49.70
2018-12-15T10:14:58.492Z,49.40
2018-12-15T10:17:25.409Z,49.40
2018-12-15T10:19:52.408Z,49.40
2018-12-15T10:22:19.324Z,49.40
2018-12-15T10:24:46.256Z,49.70
2018-12-15T10:27:13.251Z,49.40
2018-12-15T10:29:45.967Z,49.40
2018-12-15T10:32:18.843Z,49.60
2018-12-15T10:34:45.836Z,49.50
2018-12-15T10:37:13.252Z,49.40
2018-12-15T10:39:40.205Z,49.30
2018-12-15T10:42:07.175Z,49.50
2018-12-15T10:44:34.135Z,49.40
2018-12-15T10:47:01.052Z,49.50
2018-12-15T10:49:30.731Z,49.40
2018-12-15T10:51:56.889Z,49.50
2018-12-15T10:54:23.863Z,49.40
2018-12-15T10:56:50.775Z,49.60
2018-12-15T10:59:17.695Z,49.60
2018-12-15T11:01:44.760Z,49.60
2018-12-15T11:04:11.677Z,49.50
2018-12-15T11:06:38.807Z,49.60
2018-12-15T11:09:05.865Z,49.50
2018-12-15T11:11:32.788Z,49.70
2018-12-15T11:13:59.732Z,50.00
2018-12-15T11:16:26.712Z,50.40
2018-12-15T11:18:53.627Z,50.60
2018-12-15T11:21:20.760Z,51.10
2018-12-15T11:23:47.738Z,51.60
2018-12-15T11:26:14.763Z,52.10
2018-12-15T11:28:41.681Z,53.00
2018-12-15T11:31:08.657Z,53.40
2018-12-15T11:33:35.705Z,53.70
2018-12-15T11:36:02.776Z,54.30
2018-12-15T11:38:29.733Z,54.60
2018-12-15T11:40:56.755Z,55.50
2018-12-15T11:43:23.696Z,55.20
2018-12-15T11:45:50.640Z,55.50
2018-12-15T11:48:17.588Z,55.70
2018-12-15T11:50:44.532Z,56.00
2018-12-15T11:53:11.481Z,56.20
2018-12-15T11:55:38.424Z,56.00
2018-12-15T11:58:05.353Z,56.10
2018-12-15T12:00:32.416Z,56.00
2018-12-15T12:02:59.359Z,55.90
2018-12-15T12:05:26.279Z,55.90
2018-12-15T12:07:53.276Z,55.90
2018-12-15T12:10:20.197Z,55.90
2018-12-15T12:12:47.148Z,55.90
2018-12-15T12:15:14.096Z,55.70
2018-12-15T12:17:41.028Z,55.90
2018-12-15T12:20:08.412Z,55.80
2018-12-15T12:22:35.324Z,55.80
2018-12-15T12:25:02.250Z,55.80
2018-12-15T12:27:29.169Z,55.50
2018-12-15T12:29:56.175Z,55.40
2018-12-15T12:32:23.120Z,55.70
2018-12-15T12:34:50.082Z,55.50
2018-12-15T12:48:21.808Z,54.70
2018-12-15T12:50:48.781Z,54.50
2018-12-15T12:53:15.691Z,54.40
2018-12-15T12:55:42.617Z,54.30
2018-12-15T12:58:09.688Z,54.20
2018-12-15T13:00:36.637Z,54.40
2018-12-15T13:03:03.547Z,54.40
2018-12-15T13:05:30.628Z,54.40
2018-12-15T13:07:57.585Z,54.50
2018-12-15T13:10:24.552Z,54.50
2018-12-15T13:12:51.571Z,54.90
2018-12-15T13:15:18.490Z,55.00
2018-12-15T13:17:45.455Z,55.30
2018-12-15T13:20:12.388Z,55.30
2018-12-15T13:22:39.318Z,55.70
2018-12-15T13:25:06.238Z,56.30
2018-12-15T13:27:33.253Z,56.70
2018-12-15T13:30:00.196Z,56.90
2018-12-15T13:32:27.116Z,56.90
2018-12-15T13:34:54.123Z,57.30
2018-12-15T13:37:21.128Z,57.30
2018-12-15T13:39:48.048Z,57.30
2018-12-15T13:42:15.083Z,57.70
2018-12-15T13:44:42.787Z,58.00
2018-12-15T13:47:09.729Z,58.20
2018-12-15T13:49:36.783Z,58.40
2018-12-15T13:52:03.712Z,58.70
2018-12-15T13:54:30.645Z,58.80
2018-12-15T13:56:57.635Z,59.00
2018-12-15T13:59:24.585Z,59.40
2018-12-15T14:01:52.541Z,59.60
2018-12-15T14:04:19.476Z,59.70
2018-12-15T14:06:46.571Z,59.80
2018-12-15T14:09:13.571Z,60.60
2018-12-15T14:11:40.522Z,60.10
2018-12-15T14:14:07.473Z,60.10
2018-12-15T14:16:34.412Z,60.10
2018-12-15T14:19:01.391Z,59.80
2018-12-15T14:21:28.316Z,59.70
2018-12-15T14:23:55.232Z,59.60
2018-12-15T14:26:22.305Z,59.40
2018-12-15T14:28:49.220Z,59.30
2018-12-15T14:31:16.193Z,59.00
2018-12-15T14:33:43.237Z,58.80
2018-12-15T14:36:10.192Z,58.60
2018-12-15T14:38:37.117Z,58.30
2018-12-15T14:41:04.186Z,58.10
2018-12-15T14:43:31.128Z,58.00
2018-12-15T14:45:58.088Z,57.80
2018-12-15T14:48:25.029Z,57.70
2018-12-15T14:50:51.948Z,57.50
2018-12-15T14:53:18.878Z,57.40
2018-12-15T14:55:45.856Z,57.30
2018-12-15T14:58:12.788Z,57.30
2018-12-15T15:00:39.697Z,57.10
2018-12-15T15:03:06.800Z,57.10
2018-12-15T15:05:33.716Z,57.20
2018-12-15T15:08:00.684Z,57.10
2018-12-15T15:10:27.601Z,57.00
2018-12-15T15:12:54.782Z,56.80
2018-12-15T15:15:21.692Z,56.50
2018-12-15T15:17:48.785Z,56.30
2018-12-15T15:20:15.770Z,56.10
2018-12-15T15:22:42.773Z,56.20
2018-12-15T15:25:09.828Z,56.60
2018-12-15T15:27:36.769Z,56.90
2018-12-15T15:30:04.626Z,56.80
2018-12-15T15:32:31.585Z,56.70
2018-12-15T15:34:58.508Z,56.60
2018-12-15T15:37:25.465Z,56.60
2018-12-15T15:39:52.522Z,56.60
2018-12-15T15:42:19.479Z,56.60
2018-12-15T15:44:46.401Z,56.60
2018-12-15T15:47:13.469Z,56.80
2018-12-15T15:49:40.389Z,57.10
2018-12-15T15:52:07.343Z,57.00
2018-12-15T15:54:34.314Z,57.10
2018-12-15T15:57:01.349Z,57.30
2018-12-15T22:03:11.520Z,55.20
2018-12-15T22:05:38.429Z,55.40
2018-12-15T22:08:05.357Z,55.40
2018-12-15T22:10:32.333Z,55.20
2018-12-15T22:12:59.252Z,55.20
2018-12-15T22:15:26.218Z,55.00
2018-12-15T22:17:53.148Z,54.90
2018-12-15T22:20:20.405Z,54.70
2018-12-15T22:22:47.358Z,54.70
2018-12-15T22:25:14.268Z,54.60
2018-12-15T22:27:41.180Z,54.60
2018-12-15T22:30:08.100Z,54.40
2018-12-15T22:32:35.026Z,54.50
2018-12-15T22:35:01.980Z,54.50
2018-12-15T22:37:28.923Z,54.50
2018-12-15T22:39:55.840Z,54.70
2018-12-15T22:42:22.819Z,54.90
2018-12-15T22:44:49.768Z,55.20
2018-12-15T22:47:16.683Z,55.20
2018-12-15T22:49:43.667Z,55.30
2018-12-15T22:52:10.585Z,55.20
2018-12-15T22:54:37.513Z,55.20
2018-12-15T22:57:04.496Z,55.20
2018-12-15T22:59:31.428Z,55.20
2018-12-15T23:01:58.589Z,55.20
2018-12-15T23:04:25.925Z,55.10
2018-12-15T23:06:52.932Z,54.90
2018-12-15T23:09:19.861Z,54.90
2018-12-15T23:11:46.788Z,54.70
2018-12-15T23:14:13.802Z,54.60
2018-12-15T23:16:40.784Z,54.60
2018-12-15T23:19:07.724Z,54.60
2018-12-15T23:21:34.635Z,54.50
2018-12-15T23:24:01.551Z,54.50
2018-12-15T23:26:28.470Z,54.50
2018-12-15T23:28:55.383Z,55.00
2018-12-15T23:31:22.343Z,55.20
2018-12-15T23:33:49.296Z,55.20
2018-12-15T23:36:16.244Z,54.60
2018-12-15T23:38:43.185Z,54.60
2018-12-15T23:41:10.128Z,54.60
2018-12-15T23:43:37.044Z,54.60
2018-12-15T23:46:03.960Z,54.60
2018-12-15T23:48:30.889Z,54.60
2018-12-15T23:50:57.815Z,54.60
2018-12-15T23:53:24.733Z,54.50
2018-12-15T23:55:51.656Z,54.30
2018-12-15T23:58:18.582Z,54.20
